sensor_id;sensor_type;location;lat;lon;timestamp;P1;durP1;ratioP1;P2;durP2;ratioP2
56653;SDS011;45096;52.302;4.634;2023-08-06T00:00:26;2.60;;;2.40;;
56653;SDS011;45096;52.302;4.634;2023-08-06T00:02:53;2.40;;;2.20;;
56653;SDS011;45096;52.302;4.634;2023-08-06T00:05:18;2.42;;;2.22;;
56653;SDS011;45096;52.302;4.634;2023-08-06T00:07:44;2.53;;;2.42;;
56653;SDS011;45096;52.302;4.634;2023-08-06T00:10:09;2.70;;;2.28;;
56653;SDS011;45096;52.302;4.634;2023-08-06T00:12:35;2.20;;;2.10;;
56653;SDS011;45096;52.302;4.634;2023-08-06T00:15:00;2.90;;;2.40;;
56653;SDS011;45096;52.302;4.634;2023-08-06T00:17:25;2.10;;;2.00;;
56653;SDS011;45096;52.302;4.634;2023-08-06T00:19:52;2.25;;;2.15;;
56653;SDS011;45096;52.302;4.634;2023-08-06T00:22:18;2.30;;;2.20;;
56653;SDS011;45096;52.302;4.634;2023-08-06T00:24:43;10.27;;;2.67;;
56653;SDS011;45096;52.302;4.634;2023-08-06T00:27:08;2.00;;;1.90;;
56653;SDS011;45096;52.302;4.634;2023-08-06T00:29:34;1.85;;;1.75;;
56653;SDS011;45096;52.302;4.634;2023-08-06T00:31:59;2.50;;;2.30;;
56653;SDS011;45096;52.302;4.634;2023-08-06T00:34:25;2.33;;;2.13;;
56653;SDS011;45096;52.302;4.634;2023-08-06T00:36:51;2.28;;;2.00;;
56653;SDS011;45096;52.302;4.634;2023-08-06T00:39:17;2.30;;;2.10;;
56653;SDS011;45096;52.302;4.634;2023-08-06T00:41:42;2.40;;;2.20;;
56653;SDS011;45096;52.302;4.634;2023-08-06T00:44:08;2.03;;;1.92;;
56653;SDS011;45096;52.302;4.634;2023-08-06T00:46:33;1.90;;;1.80;;
56653;SDS011;45096;52.302;4.634;2023-08-06T00:48:59;1.90;;;1.80;;
56653;SDS011;45096;52.302;4.634;2023-08-06T00:51:25;1.98;;;1.88;;
56653;SDS011;45096;52.302;4.634;2023-08-06T00:53:52;2.30;;;2.20;;
56653;SDS011;45096;52.302;4.634;2023-08-06T00:56:17;2.17;;;2.08;;
56653;SDS011;45096;52.302;4.634;2023-08-06T00:58:43;2.10;;;1.90;;
56653;SDS011;45096;52.302;4.634;2023-08-06T01:01:09;2.20;;;2.10;;
56653;SDS011;45096;52.302;4.634;2023-08-06T01:03:34;1.90;;;1.80;;
56653;SDS011;45096;52.302;4.634;2023-08-06T01:06:00;2.05;;;1.95;;
56653;SDS011;45096;52.302;4.634;2023-08-06T01:08:29;2.53;;;2.33;;
56653;SDS011;45096;52.302;4.634;2023-08-06T01:11:02;2.30;;;2.20;;
56653;SDS011;45096;52.302;4.634;2023-08-06T01:13:35;2.25;;;2.15;;
56653;SDS011;45096;52.302;4.634;2023-08-06T01:16:05;2.00;;;1.80;;
56653;SDS011;45096;52.302;4.634;2023-08-06T01:18:31;2.03;;;1.92;;
56653;SDS011;45096;52.302;4.634;2023-08-06T01:20:58;1.90;;;1.73;;
56653;SDS011;45096;52.302;4.634;2023-08-06T01:23:23;1.75;;;1.73;;
56653;SDS011;45096;52.302;4.634;2023-08-06T01:25:52;2.13;;;2.03;;
56653;SDS011;45096;52.302;4.634;2023-08-06T01:28:22;1.88;;;1.77;;
56653;SDS011;45096;52.302;4.634;2023-08-06T01:30:51;1.90;;;1.80;;
56653;SDS011;45096;52.302;4.634;2023-08-06T01:33:19;1.98;;;1.88;;
56653;SDS011;45096;52.302;4.634;2023-08-06T01:35:46;1.83;;;1.73;;
56653;SDS011;45096;52.302;4.634;2023-08-06T01:38:14;1.95;;;1.85;;
56653;SDS011;45096;52.302;4.634;2023-08-06T01:40:39;2.13;;;1.92;;
56653;SDS011;45096;52.302;4.634;2023-08-06T01:43:04;1.95;;;1.90;;
56653;SDS011;45096;52.302;4.634;2023-08-06T01:45:30;1.70;;;1.60;;
56653;SDS011;45096;52.302;4.634;2023-08-06T01:47:55;2.17;;;1.98;;
56653;SDS011;45096;52.302;4.634;2023-08-06T01:50:21;2.20;;;2.10;;
56653;SDS011;45096;52.302;4.634;2023-08-06T01:52:46;1.98;;;1.88;;
56653;SDS011;45096;52.302;4.634;2023-08-06T01:55:13;1.70;;;1.60;;
56653;SDS011;45096;52.302;4.634;2023-08-06T01:57:38;1.73;;;1.63;;
56653;SDS011;45096;52.302;4.634;2023-08-06T02:00:04;1.65;;;1.55;;
56653;SDS011;45096;52.302;4.634;2023-08-06T02:02:30;1.60;;;1.50;;
56653;SDS011;45096;52.302;4.634;2023-08-06T02:04:56;1.92;;;1.77;;
56653;SDS011;45096;52.302;4.634;2023-08-06T02:07:21;2.03;;;1.92;;
56653;SDS011;45096;52.302;4.634;2023-08-06T02:09:47;1.55;;;1.48;;
56653;SDS011;45096;52.302;4.634;2023-08-06T02:12:13;1.70;;;1.60;;
56653;SDS011;45096;52.302;4.634;2023-08-06T02:14:39;1.67;;;1.58;;
56653;SDS011;45096;52.302;4.634;2023-08-06T02:17:04;1.85;;;1.75;;
56653;SDS011;45096;52.302;4.634;2023-08-06T02:19:30;1.52;;;1.42;;
56653;SDS011;45096;52.302;4.634;2023-08-06T02:21:55;1.60;;;1.60;;
56653;SDS011;45096;52.302;4.634;2023-08-06T02:24:21;1.30;;;1.30;;
56653;SDS011;45096;52.302;4.634;2023-08-06T02:26:46;1.88;;;1.77;;
56653;SDS011;45096;52.302;4.634;2023-08-06T02:29:13;1.50;;;1.40;;
56653;SDS011;45096;52.302;4.634;2023-08-06T02:31:38;1.75;;;1.65;;
56653;SDS011;45096;52.302;4.634;2023-08-06T02:34:03;1.85;;;1.73;;
56653;SDS011;45096;52.302;4.634;2023-08-06T02:36:32;1.83;;;1.83;;
56653;SDS011;45096;52.302;4.634;2023-08-06T02:38:57;1.42;;;1.40;;
56653;SDS011;45096;52.302;4.634;2023-08-06T02:41:23;1.40;;;1.40;;
56653;SDS011;45096;52.302;4.634;2023-08-06T02:43:48;1.83;;;1.70;;
56653;SDS011;45096;52.302;4.634;2023-08-06T02:46:15;1.88;;;1.77;;
56653;SDS011;45096;52.302;4.634;2023-08-06T02:48:40;2.00;;;1.90;;
56653;SDS011;45096;52.302;4.634;2023-08-06T02:51:06;2.40;;;2.30;;
56653;SDS011;45096;52.302;4.634;2023-08-06T02:53:31;2.60;;;2.40;;
56653;SDS011;45096;52.302;4.634;2023-08-06T02:55:56;2.05;;;1.95;;
56653;SDS011;45096;52.302;4.634;2023-08-06T02:58:22;2.58;;;2.47;;
56653;SDS011;45096;52.302;4.634;2023-08-06T03:00:58;2.33;;;2.22;;
56653;SDS011;45096;52.302;4.634;2023-08-06T03:03:25;2.05;;;1.95;;
56653;SDS011;45096;52.302;4.634;2023-08-06T03:05:51;2.30;;;2.10;;
56653;SDS011;45096;52.302;4.634;2023-08-06T03:08:17;2.05;;;1.85;;
56653;SDS011;45096;52.302;4.634;2023-08-06T03:10:42;2.55;;;2.38;;
56653;SDS011;45096;52.302;4.634;2023-08-06T03:13:08;2.35;;;2.25;;
56653;SDS011;45096;52.302;4.634;2023-08-06T03:15:33;2.42;;;2.33;;
56653;SDS011;45096;52.302;4.634;2023-08-06T03:17:59;2.88;;;2.67;;
56653;SDS011;45096;52.302;4.634;2023-08-06T03:20:26;2.67;;;2.47;;
56653;SDS011;45096;52.302;4.634;2023-08-06T03:22:51;2.30;;;2.20;;
56653;SDS011;45096;52.302;4.634;2023-08-06T03:25:16;2.10;;;2.00;;
56653;SDS011;45096;52.302;4.634;2023-08-06T03:27:42;2.42;;;2.22;;
56653;SDS011;45096;52.302;4.634;2023-08-06T03:30:08;2.05;;;1.95;;
56653;SDS011;45096;52.302;4.634;2023-08-06T03:32:34;2.20;;;2.10;;
56653;SDS011;45096;52.302;4.634;2023-08-06T03:34:59;2.08;;;1.98;;
56653;SDS011;45096;52.302;4.634;2023-08-06T03:37:26;2.00;;;1.90;;
56653;SDS011;45096;52.302;4.634;2023-08-06T03:39:51;1.98;;;1.88;;
56653;SDS011;45096;52.302;4.634;2023-08-06T03:42:17;2.10;;;2.00;;
56653;SDS011;45096;52.302;4.634;2023-08-06T03:44:42;2.35;;;2.13;;
56653;SDS011;45096;52.302;4.634;2023-08-06T03:47:07;3.88;;;2.13;;
56653;SDS011;45096;52.302;4.634;2023-08-06T03:49:33;2.63;;;2.42;;
56653;SDS011;45096;52.302;4.634;2023-08-06T03:51:58;2.50;;;2.30;;
56653;SDS011;45096;52.302;4.634;2023-08-06T03:54:25;2.67;;;2.47;;
56653;SDS011;45096;52.302;4.634;2023-08-06T03:56:50;2.47;;;2.10;;
56653;SDS011;45096;52.302;4.634;2023-08-06T03:59:16;2.53;;;2.33;;
56653;SDS011;45096;52.302;4.634;2023-08-06T04:01:42;3.83;;;2.30;;
56653;SDS011;45096;52.302;4.634;2023-08-06T04:04:07;2.50;;;2.03;;
56653;SDS011;45096;52.302;4.634;2023-08-06T04:06:32;2.95;;;2.28;;
56653;SDS011;45096;52.302;4.634;2023-08-06T04:08:58;2.90;;;2.30;;
56653;SDS011;45096;52.302;4.634;2023-08-06T04:11:25;3.10;;;2.35;;
56653;SDS011;45096;52.302;4.634;2023-08-06T04:13:50;2.33;;;2.13;;
56653;SDS011;45096;52.302;4.634;2023-08-06T04:16:15;2.00;;;1.80;;
56653;SDS011;45096;52.302;4.634;2023-08-06T04:18:41;2.00;;;1.90;;
56653;SDS011;45096;52.302;4.634;2023-08-06T04:21:06;1.90;;;1.80;;
56653;SDS011;45096;52.302;4.634;2023-08-06T04:23:32;2.88;;;2.00;;
56653;SDS011;45096;52.302;4.634;2023-08-06T04:25:58;2.10;;;1.90;;
56653;SDS011;45096;52.302;4.634;2023-08-06T04:28:25;2.80;;;2.45;;
56653;SDS011;45096;52.302;4.634;2023-08-06T04:30:50;2.75;;;2.53;;
56653;SDS011;45096;52.302;4.634;2023-08-06T04:33:15;3.40;;;2.63;;
56653;SDS011;45096;52.302;4.634;2023-08-06T04:35:41;2.40;;;2.20;;
56653;SDS011;45096;52.302;4.634;2023-08-06T04:38:06;3.05;;;2.60;;
56653;SDS011;45096;52.302;4.634;2023-08-06T04:40:32;1.95;;;1.85;;
56653;SDS011;45096;52.302;4.634;2023-08-06T04:42:58;4.40;;;2.42;;
56653;SDS011;45096;52.302;4.634;2023-08-06T04:45:25;2.70;;;2.28;;
56653;SDS011;45096;52.302;4.634;2023-08-06T04:47:50;2.85;;;2.30;;
56653;SDS011;45096;52.302;4.634;2023-08-06T04:50:16;3.10;;;2.72;;
56653;SDS011;45096;52.302;4.634;2023-08-06T04:52:41;2.58;;;2.38;;
56653;SDS011;45096;52.302;4.634;2023-08-06T04:55:07;2.40;;;2.20;;
56653;SDS011;45096;52.302;4.634;2023-08-06T04:57:32;2.47;;;2.22;;
56653;SDS011;45096;52.302;4.634;2023-08-06T04:59:58;2.70;;;2.50;;
56653;SDS011;45096;52.302;4.634;2023-08-06T05:02:24;3.75;;;2.92;;
56653;SDS011;45096;52.302;4.634;2023-08-06T05:04:50;2.58;;;2.35;;
56653;SDS011;45096;52.302;4.634;2023-08-06T05:07:15;2.03;;;1.92;;
56653;SDS011;45096;52.302;4.634;2023-08-06T05:09:41;2.53;;;2.33;;
56653;SDS011;45096;52.302;4.634;2023-08-06T05:12:06;1.98;;;1.85;;
56653;SDS011;45096;52.302;4.634;2023-08-06T05:14:32;1.67;;;1.58;;
56653;SDS011;45096;52.302;4.634;2023-08-06T05:16:58;2.60;;;2.25;;
56653;SDS011;45096;52.302;4.634;2023-08-06T05:19:24;2.63;;;2.42;;
56653;SDS011;45096;52.302;4.634;2023-08-06T05:21:50;3.15;;;2.05;;
56653;SDS011;45096;52.302;4.634;2023-08-06T05:24:15;2.63;;;2.42;;
56653;SDS011;45096;52.302;4.634;2023-08-06T05:26:40;3.13;;;2.85;;
56653;SDS011;45096;52.302;4.634;2023-08-06T05:29:06;4.65;;;2.22;;
56653;SDS011;45096;52.302;4.634;2023-08-06T05:31:31;2.72;;;2.05;;
56653;SDS011;45096;52.302;4.634;2023-08-06T05:33:57;2.00;;;1.90;;
56653;SDS011;45096;52.302;4.634;2023-08-06T05:36:23;4.13;;;3.72;;
56653;SDS011;45096;52.302;4.634;2023-08-06T05:38:49;6.70;;;5.00;;
56653;SDS011;45096;52.302;4.634;2023-08-06T05:41:14;4.03;;;3.58;;
56653;SDS011;45096;52.302;4.634;2023-08-06T05:43:40;4.82;;;4.32;;
56653;SDS011;45096;52.302;4.634;2023-08-06T05:46:05;5.38;;;4.57;;
56653;SDS011;45096;52.302;4.634;2023-08-06T05:48:30;4.05;;;3.50;;
56653;SDS011;45096;52.302;4.634;2023-08-06T05:50:56;3.00;;;2.80;;
56653;SDS011;45096;52.302;4.634;2023-08-06T05:53:23;2.45;;;2.28;;
56653;SDS011;45096;52.302;4.634;2023-08-06T05:55:48;2.50;;;2.30;;
56653;SDS011;45096;52.302;4.634;2023-08-06T05:58:13;2.00;;;1.90;;
56653;SDS011;45096;52.302;4.634;2023-08-06T06:00:39;2.72;;;2.25;;
56653;SDS011;45096;52.302;4.634;2023-08-06T06:03:04;2.47;;;2.28;;
56653;SDS011;45096;52.302;4.634;2023-08-06T06:05:30;2.17;;;2.00;;
56653;SDS011;45096;52.302;4.634;2023-08-06T06:07:55;2.50;;;1.90;;
56653;SDS011;45096;52.302;4.634;2023-08-06T06:10:22;2.38;;;2.00;;
56653;SDS011;45096;52.302;4.634;2023-08-06T06:12:47;2.78;;;1.98;;
56653;SDS011;45096;52.302;4.634;2023-08-06T06:15:13;2.20;;;2.05;;
56653;SDS011;45096;52.302;4.634;2023-08-06T06:17:38;2.00;;;1.90;;
56653;SDS011;45096;52.302;4.634;2023-08-06T06:20:04;2.15;;;1.95;;
56653;SDS011;45096;52.302;4.634;2023-08-06T06:22:30;2.20;;;2.10;;
56653;SDS011;45096;52.302;4.634;2023-08-06T06:24:56;3.75;;;2.30;;
56653;SDS011;45096;52.302;4.634;2023-08-06T06:27:23;2.92;;;2.10;;
56653;SDS011;45096;52.302;4.634;2023-08-06T06:29:48;1.90;;;1.75;;
56653;SDS011;45096;52.302;4.634;2023-08-06T06:32:13;2.05;;;1.85;;
56653;SDS011;45096;52.302;4.634;2023-08-06T06:34:39;1.83;;;1.73;;
56653;SDS011;45096;52.302;4.634;2023-08-06T06:37:04;2.03;;;1.88;;
56653;SDS011;45096;52.302;4.634;2023-08-06T06:39:30;2.33;;;2.17;;
56653;SDS011;45096;52.302;4.634;2023-08-06T06:41:55;2.35;;;2.25;;
56653;SDS011;45096;52.302;4.634;2023-08-06T06:44:22;1.88;;;1.77;;
56653;SDS011;45096;52.302;4.634;2023-08-06T06:46:47;3.38;;;2.40;;
56653;SDS011;45096;52.302;4.634;2023-08-06T06:49:13;1.95;;;1.83;;
56653;SDS011;45096;52.302;4.634;2023-08-06T06:51:38;2.25;;;2.05;;
56653;SDS011;45096;52.302;4.634;2023-08-06T06:54:04;2.63;;;2.08;;
56653;SDS011;45096;52.302;4.634;2023-08-06T06:56:29;8.88;;;6.88;;
56653;SDS011;45096;52.302;4.634;2023-08-06T06:58:55;3.90;;;3.53;;
56653;SDS011;45096;52.302;4.634;2023-08-06T07:01:21;4.80;;;3.72;;
56653;SDS011;45096;52.302;4.634;2023-08-06T07:03:47;4.85;;;4.40;;
56653;SDS011;45096;52.302;4.634;2023-08-06T07:06:12;4.85;;;4.35;;
56653;SDS011;45096;52.302;4.634;2023-08-06T07:08:38;4.38;;;3.97;;
56653;SDS011;45096;52.302;4.634;2023-08-06T07:11:04;4.28;;;3.45;;
56653;SDS011;45096;52.302;4.634;2023-08-06T07:13:30;3.17;;;2.88;;
56653;SDS011;45096;52.302;4.634;2023-08-06T07:15:55;4.10;;;2.72;;
56653;SDS011;45096;52.302;4.634;2023-08-06T07:18:22;2.92;;;2.45;;
56653;SDS011;45096;52.302;4.634;2023-08-06T07:20:48;2.85;;;2.60;;
56653;SDS011;45096;52.302;4.634;2023-08-06T07:23:14;3.38;;;2.25;;
56653;SDS011;45096;52.302;4.634;2023-08-06T07:25:39;3.38;;;2.63;;
56653;SDS011;45096;52.302;4.634;2023-08-06T07:28:04;2.70;;;2.47;;
56653;SDS011;45096;52.302;4.634;2023-08-06T07:30:30;3.35;;;2.28;;
56653;SDS011;45096;52.302;4.634;2023-08-06T07:32:55;2.28;;;2.08;;
56653;SDS011;45096;52.302;4.634;2023-08-06T07:35:22;2.67;;;2.38;;
56653;SDS011;45096;52.302;4.634;2023-08-06T07:37:47;2.22;;;2.13;;
56653;SDS011;45096;52.302;4.634;2023-08-06T07:40:13;2.50;;;2.30;;
56653;SDS011;45096;52.302;4.634;2023-08-06T07:42:38;3.55;;;2.38;;
56653;SDS011;45096;52.302;4.634;2023-08-06T07:45:04;2.45;;;2.25;;
56653;SDS011;45096;52.302;4.634;2023-08-06T07:47:30;4.57;;;2.47;;
56653;SDS011;45096;52.302;4.634;2023-08-06T07:49:56;3.97;;;3.55;;
56653;SDS011;45096;52.302;4.634;2023-08-06T07:52:22;4.18;;;3.78;;
56653;SDS011;45096;52.302;4.634;2023-08-06T07:54:48;3.17;;;2.88;;
56653;SDS011;45096;52.302;4.634;2023-08-06T07:57:13;3.33;;;2.55;;
56653;SDS011;45096;52.302;4.634;2023-08-06T07:59:39;2.25;;;2.05;;
56653;SDS011;45096;52.302;4.634;2023-08-06T08:02:04;3.40;;;2.45;;
56653;SDS011;45096;52.302;4.634;2023-08-06T08:04:30;2.15;;;2.05;;
56653;SDS011;45096;52.302;4.634;2023-08-06T08:06:56;3.13;;;1.98;;
56653;SDS011;45096;52.302;4.634;2023-08-06T08:09:23;2.28;;;1.88;;
56653;SDS011;45096;52.302;4.634;2023-08-06T08:11:48;1.92;;;1.83;;
56653;SDS011;45096;52.302;4.634;2023-08-06T08:14:13;2.47;;;2.10;;
56653;SDS011;45096;52.302;4.634;2023-08-06T08:16:39;3.55;;;2.25;;
56653;SDS011;45096;52.302;4.634;2023-08-06T08:19:04;3.42;;;1.55;;
56653;SDS011;45096;52.302;4.634;2023-08-06T08:21:30;2.10;;;1.92;;
56653;SDS011;45096;52.302;4.634;2023-08-06T08:23:55;1.60;;;1.50;;
56653;SDS011;45096;52.302;4.634;2023-08-06T08:26:22;1.80;;;1.70;;
56653;SDS011;45096;52.302;4.634;2023-08-06T08:28:47;1.73;;;1.52;;
56653;SDS011;45096;52.302;4.634;2023-08-06T08:31:13;1.50;;;1.40;;
56653;SDS011;45096;52.302;4.634;2023-08-06T08:33:38;1.52;;;1.42;;
56653;SDS011;45096;52.302;4.634;2023-08-06T08:36:04;1.92;;;1.80;;
56653;SDS011;45096;52.302;4.634;2023-08-06T08:38:29;3.33;;;1.55;;
56653;SDS011;45096;52.302;4.634;2023-08-06T08:40:55;1.70;;;1.58;;
56653;SDS011;45096;52.302;4.634;2023-08-06T08:43:22;2.65;;;1.60;;
56653;SDS011;45096;52.302;4.634;2023-08-06T08:45:49;1.65;;;1.55;;
56653;SDS011;45096;52.302;4.634;2023-08-06T08:48:15;1.10;;;1.10;;
56653;SDS011;45096;52.302;4.634;2023-08-06T08:50:42;3.13;;;1.13;;
56653;SDS011;45096;52.302;4.634;2023-08-06T08:53:09;1.30;;;1.17;;
56653;SDS011;45096;52.302;4.634;2023-08-06T08:55:35;1.77;;;1.30;;
56653;SDS011;45096;52.302;4.634;2023-08-06T08:58:02;1.70;;;1.60;;
56653;SDS011;45096;52.302;4.634;2023-08-06T09:00:29;1.85;;;1.35;;
56653;SDS011;45096;52.302;4.634;2023-08-06T09:02:54;2.03;;;1.70;;
56653;SDS011;45096;52.302;4.634;2023-08-06T09:05:21;1.60;;;1.27;;
56653;SDS011;45096;52.302;4.634;2023-08-06T09:07:48;2.28;;;1.48;;
56653;SDS011;45096;52.302;4.634;2023-08-06T09:10:14;1.50;;;1.13;;
56653;SDS011;45096;52.302;4.634;2023-08-06T09:12:41;1.60;;;1.45;;
56653;SDS011;45096;52.302;4.634;2023-08-06T09:15:07;3.80;;;1.38;;
56653;SDS011;45096;52.302;4.634;2023-08-06T09:17:34;1.65;;;1.45;;
56653;SDS011;45096;52.302;4.634;2023-08-06T09:20:08;3.00;;;1.50;;
56653;SDS011;45096;52.302;4.634;2023-08-06T09:22:34;1.05;;;1.05;;
56653;SDS011;45096;52.302;4.634;2023-08-06T09:25:00;2.55;;;1.30;;
56653;SDS011;45096;52.302;4.634;2023-08-06T09:27:25;2.58;;;1.58;;
56653;SDS011;45096;52.302;4.634;2023-08-06T09:29:51;2.05;;;1.25;;
56653;SDS011;45096;52.302;4.634;2023-08-06T09:32:17;1.65;;;1.55;;
56653;SDS011;45096;52.302;4.634;2023-08-06T09:34:46;2.47;;;1.50;;
56653;SDS011;45096;52.302;4.634;2023-08-06T09:37:11;1.30;;;1.20;;
56653;SDS011;45096;52.302;4.634;2023-08-06T09:39:38;2.35;;;1.70;;
56653;SDS011;45096;52.302;4.634;2023-08-06T09:42:04;1.65;;;1.38;;
56653;SDS011;45096;52.302;4.634;2023-08-06T09:44:30;1.40;;;1.30;;
56653;SDS011;45096;52.302;4.634;2023-08-06T09:46:56;3.10;;;1.70;;
56653;SDS011;45096;52.302;4.634;2023-08-06T09:49:25;1.98;;;1.67;;
56653;SDS011;45096;52.302;4.634;2023-08-06T09:51:52;1.50;;;1.40;;
56653;SDS011;45096;52.302;4.634;2023-08-06T09:54:17;2.40;;;1.50;;
56653;SDS011;45096;52.302;4.634;2023-08-06T09:56:43;1.50;;;1.40;;
56653;SDS011;45096;52.302;4.634;2023-08-06T09:59:08;1.73;;;1.55;;
56653;SDS011;45096;52.302;4.634;2023-08-06T10:01:35;2.35;;;1.63;;
56653;SDS011;45096;52.302;4.634;2023-08-06T10:04:00;3.80;;;1.50;;
56653;SDS011;45096;52.302;4.634;2023-08-06T10:06:27;1.58;;;1.48;;
56653;SDS011;45096;52.302;4.634;2023-08-06T10:08:54;1.65;;;1.42;;
56653;SDS011;45096;52.302;4.634;2023-08-06T10:11:20;3.00;;;1.48;;
56653;SDS011;45096;52.302;4.634;2023-08-06T10:13:47;1.52;;;1.42;;
56653;SDS011;45096;52.302;4.634;2023-08-06T10:16:12;1.45;;;1.30;;
56653;SDS011;45096;52.302;4.634;2023-08-06T10:18:38;2.08;;;1.25;;
56653;SDS011;45096;52.302;4.634;2023-08-06T10:21:04;2.70;;;1.77;;
56653;SDS011;45096;52.302;4.634;2023-08-06T10:23:33;3.08;;;1.75;;
56653;SDS011;45096;52.302;4.634;2023-08-06T10:26:00;2.25;;;1.60;;
56653;SDS011;45096;52.302;4.634;2023-08-06T10:28:30;1.70;;;1.50;;
56653;SDS011;45096;52.302;4.634;2023-08-06T10:30:59;1.60;;;1.50;;
56653;SDS011;45096;52.302;4.634;2023-08-06T10:33:24;1.40;;;1.30;;
56653;SDS011;45096;52.302;4.634;2023-08-06T10:36:06;2.78;;;1.52;;
56653;SDS011;45096;52.302;4.634;2023-08-06T10:38:34;2.35;;;1.30;;
56653;SDS011;45096;52.302;4.634;2023-08-06T10:41:02;1.50;;;1.40;;
56653;SDS011;45096;52.302;4.634;2023-08-06T10:43:28;2.05;;;1.55;;
56653;SDS011;45096;52.302;4.634;2023-08-06T10:45:55;1.30;;;1.20;;
56653;SDS011;45096;52.302;4.634;2023-08-06T10:48:28;1.40;;;1.40;;
56653;SDS011;45096;52.302;4.634;2023-08-06T10:50:54;2.42;;;1.40;;
56653;SDS011;45096;52.302;4.634;2023-08-06T10:53:20;4.10;;;1.40;;
56653;SDS011;45096;52.302;4.634;2023-08-06T10:55:46;1.30;;;1.20;;
56653;SDS011;45096;52.302;4.634;2023-08-06T10:58:13;1.38;;;1.20;;
56653;SDS011;45096;52.302;4.634;2023-08-06T11:00:40;2.28;;;1.15;;
56653;SDS011;45096;52.302;4.634;2023-08-06T11:03:05;1.02;;;1.02;;
56653;SDS011;45096;52.302;4.634;2023-08-06T11:05:31;1.83;;;1.17;;
56653;SDS011;45096;52.302;4.634;2023-08-06T11:07:56;1.92;;;1.13;;
56653;SDS011;45096;52.302;4.634;2023-08-06T11:10:21;1.60;;;1.45;;
56653;SDS011;45096;52.302;4.634;2023-08-06T11:12:47;3.13;;;1.45;;
56653;SDS011;45096;52.302;4.634;2023-08-06T11:15:14;2.53;;;1.10;;
56653;SDS011;45096;52.302;4.634;2023-08-06T11:17:40;2.17;;;1.00;;
56653;SDS011;45096;52.302;4.634;2023-08-06T11:20:06;1.30;;;1.20;;
56653;SDS011;45096;52.302;4.634;2023-08-06T11:22:32;1.05;;;0.95;;
56653;SDS011;45096;52.302;4.634;2023-08-06T11:24:57;2.03;;;1.30;;
56653;SDS011;45096;52.302;4.634;2023-08-06T11:27:23;1.25;;;1.00;;
56653;SDS011;45096;52.302;4.634;2023-08-06T11:29:50;2.05;;;1.23;;
56653;SDS011;45096;52.302;4.634;2023-08-06T11:32:17;2.05;;;1.40;;
56653;SDS011;45096;52.302;4.634;2023-08-06T11:34:42;1.00;;;1.00;;
56653;SDS011;45096;52.302;4.634;2023-08-06T11:37:08;1.10;;;0.90;;
56653;SDS011;45096;52.302;4.634;2023-08-06T11:39:34;1.48;;;1.13;;
56653;SDS011;45096;52.302;4.634;2023-08-06T11:41:59;1.10;;;1.10;;
56653;SDS011;45096;52.302;4.634;2023-08-06T11:44:25;1.10;;;1.10;;
56653;SDS011;45096;52.302;4.634;2023-08-06T11:46:51;0.90;;;0.90;;
56653;SDS011;45096;52.302;4.634;2023-08-06T11:49:18;1.08;;;1.00;;
56653;SDS011;45096;52.302;4.634;2023-08-06T11:51:44;1.45;;;1.25;;
56653;SDS011;45096;52.302;4.634;2023-08-06T11:54:10;1.88;;;0.95;;
56653;SDS011;45096;52.302;4.634;2023-08-06T11:56:35;1.00;;;1.00;;
56653;SDS011;45096;52.302;4.634;2023-08-06T11:59:01;2.05;;;1.02;;
56653;SDS011;45096;52.302;4.634;2023-08-06T12:01:26;1.13;;;1.02;;
56653;SDS011;45096;52.302;4.634;2023-08-06T12:03:52;1.10;;;1.10;;
56653;SDS011;45096;52.302;4.634;2023-08-06T12:06:18;1.67;;;1.08;;
56653;SDS011;45096;52.302;4.634;2023-08-06T12:08:44;0.90;;;0.90;;
56653;SDS011;45096;52.302;4.634;2023-08-06T12:11:09;2.90;;;1.08;;
56653;SDS011;45096;52.302;4.634;2023-08-06T12:13:34;2.15;;;1.15;;
56653;SDS011;45096;52.302;4.634;2023-08-06T12:16:00;1.10;;;1.08;;
56653;SDS011;45096;52.302;4.634;2023-08-06T12:18:25;1.13;;;1.00;;
56653;SDS011;45096;52.302;4.634;2023-08-06T12:20:51;1.20;;;1.20;;
56653;SDS011;45096;52.302;4.634;2023-08-06T12:23:17;0.88;;;0.88;;
56653;SDS011;45096;52.302;4.634;2023-08-06T12:25:43;1.27;;;1.20;;
56653;SDS011;45096;52.302;4.634;2023-08-06T12:28:08;1.95;;;1.10;;
56653;SDS011;45096;52.302;4.634;2023-08-06T12:30:34;1.75;;;0.88;;
56653;SDS011;45096;52.302;4.634;2023-08-06T12:32:59;1.95;;;0.95;;
56653;SDS011;45096;52.302;4.634;2023-08-06T12:35:25;1.55;;;1.10;;
56653;SDS011;45096;52.302;4.634;2023-08-06T12:37:50;1.55;;;1.20;;
56653;SDS011;45096;52.302;4.634;2023-08-06T12:40:17;2.65;;;1.20;;
56653;SDS011;45096;52.302;4.634;2023-08-06T12:42:42;2.35;;;1.40;;
56653;SDS011;45096;52.302;4.634;2023-08-06T12:45:08;1.15;;;0.80;;
56653;SDS011;45096;52.302;4.634;2023-08-06T12:47:33;1.00;;;1.00;;
56653;SDS011;45096;52.302;4.634;2023-08-06T12:49:59;1.00;;;1.00;;
56653;SDS011;45096;52.302;4.634;2023-08-06T12:52:24;0.80;;;0.80;;
56653;SDS011;45096;52.302;4.634;2023-08-06T12:54:50;1.25;;;1.05;;
56653;SDS011;45096;52.302;4.634;2023-08-06T12:57:16;1.10;;;1.10;;
56653;SDS011;45096;52.302;4.634;2023-08-06T12:59:42;0.80;;;0.80;;
56653;SDS011;45096;52.302;4.634;2023-08-06T13:02:07;0.98;;;0.90;;
56653;SDS011;45096;52.302;4.634;2023-08-06T13:04:33;1.10;;;1.05;;
56653;SDS011;45096;52.302;4.634;2023-08-06T13:06:58;1.02;;;0.90;;
56653;SDS011;45096;52.302;4.634;2023-08-06T13:09:23;1.95;;;1.20;;
56653;SDS011;45096;52.302;4.634;2023-08-06T13:11:49;0.90;;;0.90;;
56653;SDS011;45096;52.302;4.634;2023-08-06T13:14:16;2.13;;;1.00;;
56653;SDS011;45096;52.302;4.634;2023-08-06T13:16:42;1.55;;;0.90;;
56653;SDS011;45096;52.302;4.634;2023-08-06T13:19:08;0.90;;;0.90;;
56653;SDS011;45096;52.302;4.634;2023-08-06T13:21:34;1.48;;;1.00;;
56653;SDS011;45096;52.302;4.634;2023-08-06T13:24:01;0.93;;;0.77;;
56653;SDS011;45096;52.302;4.634;2023-08-06T13:26:27;0.88;;;0.80;;
56653;SDS011;45096;52.302;4.634;2023-08-06T13:28:53;1.33;;;1.02;;
56653;SDS011;45096;52.302;4.634;2023-08-06T13:31:19;2.50;;;0.90;;
56653;SDS011;45096;52.302;4.634;2023-08-06T13:33:45;0.95;;;0.95;;
56653;SDS011;45096;52.302;4.634;2023-08-06T13:36:10;2.30;;;0.75;;
56653;SDS011;45096;52.302;4.634;2023-08-06T13:38:36;1.33;;;1.02;;
56653;SDS011;45096;52.302;4.634;2023-08-06T13:41:01;2.70;;;1.40;;
56653;SDS011;45096;52.302;4.634;2023-08-06T13:43:26;2.20;;;1.30;;
56653;SDS011;45096;52.302;4.634;2023-08-06T13:45:52;2.17;;;1.52;;
56653;SDS011;45096;52.302;4.634;2023-08-06T13:48:19;3.17;;;1.15;;
56653;SDS011;45096;52.302;4.634;2023-08-06T13:50:44;9.00;;;3.55;;
56653;SDS011;45096;52.302;4.634;2023-08-06T13:53:09;2.83;;;2.05;;
56653;SDS011;45096;52.302;4.634;2023-08-06T13:55:35;6.72;;;2.35;;
56653;SDS011;45096;52.302;4.634;2023-08-06T13:58:00;3.35;;;1.70;;
56653;SDS011;45096;52.302;4.634;2023-08-06T14:00:26;6.40;;;1.73;;
56653;SDS011;45096;52.302;4.634;2023-08-06T14:02:51;4.38;;;1.70;;
56653;SDS011;45096;52.302;4.634;2023-08-06T14:05:18;2.85;;;1.25;;
56653;SDS011;45096;52.302;4.634;2023-08-06T14:07:44;1.58;;;1.45;;
56653;SDS011;45096;52.302;4.634;2023-08-06T14:10:09;3.40;;;1.33;;
56653;SDS011;45096;52.302;4.634;2023-08-06T14:12:35;2.83;;;1.15;;
56653;SDS011;45096;52.302;4.634;2023-08-06T14:15:00;4.78;;;1.35;;
56653;SDS011;45096;52.302;4.634;2023-08-06T14:17:25;6.78;;;1.30;;
56653;SDS011;45096;52.302;4.634;2023-08-06T14:19:51;2.45;;;1.15;;
56653;SDS011;45096;52.302;4.634;2023-08-06T14:22:18;4.97;;;1.55;;
56653;SDS011;45096;52.302;4.634;2023-08-06T14:24:43;3.30;;;1.00;;
56653;SDS011;45096;52.302;4.634;2023-08-06T14:27:08;3.83;;;1.50;;
56653;SDS011;45096;52.302;4.634;2023-08-06T14:29:34;2.35;;;1.25;;
56653;SDS011;45096;52.302;4.634;2023-08-06T14:31:59;2.13;;;1.10;;
56653;SDS011;45096;52.302;4.634;2023-08-06T14:34:25;3.25;;;1.00;;
56653;SDS011;45096;52.302;4.634;2023-08-06T14:36:50;4.82;;;1.33;;
56653;SDS011;45096;52.302;4.634;2023-08-06T14:39:17;3.10;;;1.35;;